Time;durP1;ratioP1;P1;durP2;ratioP2;P2;SDS_P1;SDS_P2;PMS_P1;PMS_P2;Temp;Humidity;BMP_temperature;BMP_pressure;BME280_temperature;BME280_humidity;BME280_pressure;Samples;Min_cycle;Max_cycle;Signal;HPM_P1;HPM_P2
2023/02/01 00:02:05;;;;;;;3.70;1.13;;;4.70;89.80;;;;;;5119836;27;20066;-78
2023/02/01 00:04:31;;;;;;;2.88;1.00;;;4.60;89.70;;;;;;5119446;27;20043;-77
2023/02/01 00:06:56;;;;;;;1.75;0.93;;;4.70;89.80;;;;;;5155140;27;20038;-77
2023/02/01 00:09:22;;;;;;;2.47;0.73;;;4.60;89.80;;;;;;5119335;27;20053;-77
2023/02/01 00:11:48;;;;;;;3.80;1.10;;;4.60;89.80;;;;;;5118003;27;20035;-77
2023/02/01 00:14:13;;;;;;;5.15;1.33;;;4.60;89.80;;;;;;5136473;27;20039;-78
2023/02/01 00:16:39;;;;;;;3.38;0.90;;;4.60;89.90;;;;;;5155006;27;20371;-77
2023/02/01 00:19:10;;;;;;;5.07;1.08;;;4.70;89.90;;;;;;5136348;27;20087;-78
2023/02/01 00:21:35;;;;;;;3.03;1.00;;;4.70;89.80;;;;;;5155011;27;20070;-77
2023/02/01 00:24:02;;;;;;;2.42;1.13;;;4.70;89.80;;;;;;5154939;27;20077;-77
2023/02/01 00:26:32;;;;;;;5.53;1.27;;;4.70;89.80;;;;;;5119235;27;20503;-77
2023/02/01 00:28:58;;;;;;;3.33;0.93;;;4.70;89.70;;;;;;5119044;27;20046;-77
2023/02/01 00:31:24;;;;;;;3.63;0.90;;;4.70;89.80;;;;;;5136308;27;20409;-77
2023/02/01 00:33:50;;;;;;;5.55;1.45;;;4.70;89.70;;;;;;5119157;27;20039;-77
2023/02/01 00:36:15;;;;;;;3.90;0.90;;;4.70;89.80;;;;;;5154580;27;20043;-77
2023/02/01 00:38:41;;;;;;;2.63;0.80;;;4.70;89.70;;;;;;5118892;27;20153;-77
2023/02/01 00:41:15;;;;;;;2.95;0.98;;;4.70;89.50;;;;;;5119227;27;20090;-78
2023/02/01 00:43:42;;;;;;;2.67;0.90;;;4.70;89.50;;;;;;5135897;27;20039;-77
2023/02/01 00:46:08;;;;;;;4.85;1.20;;;4.70;89.50;;;;;;5135891;27;20043;-77
2023/02/01 00:48:34;;;;;;;4.50;1.25;;;4.70;89.50;;;;;;5136203;27;20540;-77
2023/02/01 00:51:01;;;;;;;1.92;0.73;;;4.70;89.50;;;;;;5101326;27;20038;-78
2023/02/01 00:53:27;;;;;;;1.65;0.95;;;4.70;89.50;;;;;;5118975;27;20043;-77
2023/02/01 00:55:53;;;;;;;3.85;1.00;;;4.70;89.50;;;;;;5135817;27;20062;-77
2023/02/01 00:58:18;;;;;;;2.63;0.73;;;4.70;89.50;;;;;;5118762;27;20066;-77
2023/02/01 01:00:44;;;;;;;2.15;0.65;;;4.80;89.60;;;;;;5101694;27;20035;-77
2023/02/01 01:03:17;;;;;;;2.95;1.25;;;4.70;89.50;;;;;;5118451;27;20038;-78
2023/02/01 01:05:47;;;;;;;4.55;1.00;;;4.80;89.60;;;;;;5137096;27;20091;-77
2023/02/01 01:08:14;;;;;;;2.60;0.80;;;4.80;89.50;;;;;;5101483;27;20038;-77
2023/02/01 01:10:41;;;;;;;4.72;1.00;;;4.70;89.40;;;;;;5135222;27;20046;-77
2023/02/01 01:13:07;;;;;;;2.35;0.90;;;4.80;89.40;;;;;;5154278;27;20494;-77
2023/02/01 01:15:37;;;;;;;1.95;0.80;;;4.80;89.50;;;;;;5118073;27;20060;-78
2023/02/01 01:18:04;;;;;;;3.40;1.00;;;4.80;90.00;;;;;;5135062;27;20428;-78
2023/02/01 01:20:29;;;;;;;4.20;1.10;;;4.80;89.40;;;;;;5135371;27;20125;-77
2023/02/01 01:22:55;;;;;;;5.82;1.05;;;4.90;89.40;;;;;;5135903;27;20503;-77
2023/02/01 01:25:21;;;;;;;3.00;1.08;;;4.90;89.40;;;;;;5135153;27;20050;-77
2023/02/01 01:27:47;;;;;;;5.03;1.13;;;4.90;89.40;;;;;;5135142;27;20047;-77
2023/02/01 01:30:13;;;;;;;3.35;1.00;;;4.80;89.30;;;;;;5135191;27;20119;-78
2023/02/01 01:32:39;;;;;;;7.50;1.50;;;4.90;89.50;;;;;;5118170;27;20055;-76
2023/02/01 01:35:05;;;;;;;5.78;1.50;;;4.90;89.40;;;;;;5135252;27;20047;-77
2023/02/01 01:37:32;;;;;;;2.13;1.08;;;5.00;89.30;;;;;;5134106;27;20054;-78
2023/02/01 01:39:57;;;;;;;4.55;1.15;;;5.00;89.20;;;;;;5134948;27;20100;-78
2023/02/01 01:42:23;;;;;;;6.95;1.33;;;5.00;89.10;;;;;;5117880;27;20046;-78
2023/02/01 01:45:06;;;;;;;5.40;1.20;;;5.00;89.10;;;;;;5134951;27;20051;-79
2023/02/01 01:47:43;;;;;;;2.75;1.00;;;5.10;89.20;;;;;;5116824;27;20539;-77
2023/02/01 01:50:12;;;;;;;4.88;1.52;;;5.00;89.10;;;;;;5100981;27;20038;-78
2023/02/01 01:52:41;;;;;;;2.08;0.90;;;5.10;89.10;;;;;;5134855;27;20406;-77
2023/02/01 01:55:07;;;;;;;3.40;1.00;;;5.00;89.00;;;;;;5117586;27;20042;-78
2023/02/01 01:57:37;;;;;;;3.67;1.40;;;5.10;89.20;;;;;;5134602;27;20481;-78
2023/02/01 02:00:13;;;;;;;5.55;1.40;;;5.00;89.30;;;;;;5134685;27;20541;-78
2023/02/01 02:02:42;;;;;;;4.00;1.30;;;4.90;89.30;;;;;;5134646;27;20066;-78
2023/02/01 02:05:08;;;;;;;4.43;1.20;;;5.00;89.30;;;;;;5134935;27;20062;-78
2023/02/01 02:07:39;;;;;;;3.40;1.17;;;5.00;89.30;;;;;;5100507;27;20129;-77
2023/02/01 02:10:06;;;;;;;4.07;1.00;;;4.90;89.30;;;;;;5135316;27;20481;-78
2023/02/01 02:12:32;;;;;;;3.42;0.90;;;4.90;89.30;;;;;;5153115;27;20041;-78
2023/02/01 02:14:58;;;;;;;2.30;0.85;;;4.90;89.40;;;;;;5135018;27;20122;-78
2023/02/01 02:17:56;;;;;;;2.28;0.75;;;4.80;89.40;;;;;;5117528;27;20046;-77
2023/02/01 02:20:48;;;;;;;2.75;1.02;;;4.80;89.60;;;;;;5152966;27;20504;-77
2023/02/01 02:23:47;;;;;;;3.10;0.90;;;4.80;89.70;;;;;;5108359;27;20370;-77
2023/02/01 02:26:34;;;;;;;5.03;0.93;;;4.80;89.70;;;;;;5140968;27;20163;-78
2023/02/01 02:29:28;;;;;;;3.67;0.80;;;4.80;89.70;;;;;;5156508;27;20035;-77
2023/02/01 02:32:21;;;;;;;2.30;0.77;;;4.80;89.80;;;;;;5156465;27;20082;-78
2023/02/01 02:34:57;;;;;;;4.18;1.10;;;4.80;89.80;;;;;;5125015;27;20046;-77
2023/02/01 02:37:46;;;;;;;2.30;1.08;;;4.70;89.70;;;;;;5121466;27;20118;-77
2023/02/01 02:40:22;;;;;;;4.80;1.27;;;4.70;89.70;;;;;;5137758;27;20434;-77
2023/02/01 02:48:49;;;;;;;5.13;0.93;;;4.80;89.70;;;;;;5126146;27;20050;-77
2023/02/01 03:05:06;;;;;;;2.60;1.02;;;4.80;89.50;;;;;;5156177;27;20041;-78
2023/02/01 03:08:11;;;;;;;4.35;1.60;;;4.80;89.50;;;;;;5101016;27;20039;-78
2023/02/01 03:10:59;;;;;;;5.38;1.02;;;4.90;89.60;;;;;;5129494;27;20050;-78
2023/02/01 03:13:45;;;;;;;3.03;1.15;;;4.80;89.50;;;;;;5121795;27;20067;-77
2023/02/01 03:16:27;;;;;;;5.45;1.30;;;4.90;89.50;;;;;;5137660;27;20477;-78
2023/02/01 03:19:11;;;;;;;3.60;1.10;;;4.90;89.40;;;;;;5156236;27;20034;-77
2023/02/01 03:21:43;;;;;;;4.32;1.48;;;4.90;89.30;;;;;;5137895;27;20038;-77
2023/02/01 03:24:14;;;;;;;4.95;1.10;;;5.00;89.30;;;;;;5119053;27;20051;-77
2023/02/01 03:26:45;;;;;;;3.25;1.00;;;5.00;89.30;;;;;;5155483;27;20125;-77
2023/02/01 03:29:17;;;;;;;5.88;1.17;;;5.00;89.30;;;;;;5155494;27;20405;-78
2023/02/01 03:31:43;;;;;;;5.38;1.20;;;5.00;89.30;;;;;;5102438;27;20039;-78
2023/02/01 03:34:12;;;;;;;4.38;1.20;;;5.00;89.30;;;;;;5155974;27;20049;-78
2023/02/01 03:36:52;;;;;;;3.50;1.35;;;5.00;89.30;;;;;;5136861;27;20126;-77
2023/02/01 03:39:29;;;;;;;3.78;1.17;;;5.00;89.40;;;;;;5138693;27;20038;-77
2023/02/01 03:42:00;;;;;;;5.45;1.27;;;5.00;89.40;;;;;;5136823;27;20034;-77
2023/02/01 03:44:35;;;;;;;3.63;1.05;;;4.90;89.30;;;;;;5137176;27;20034;-78
2023/02/01 03:47:10;;;;;;;3.17;1.00;;;5.00;89.40;;;;;;5119606;27;20556;-77
2023/02/01 03:49:46;;;;;;;4.93;1.05;;;5.00;89.40;;;;;;5136947;27;20047;-77
2023/02/01 03:52:17;;;;;;;2.58;1.05;;;5.10;89.50;;;;;;5118321;27;20071;-77
2023/02/01 03:54:44;;;;;;;5.25;1.17;;;5.10;89.50;;;;;;5118952;27;20062;-77
2023/02/01 03:57:14;;;;;;;2.67;1.45;;;5.00;89.40;;;;;;5137052;27;20099;-77
2023/02/01 03:59:42;;;;;;;3.65;1.00;;;5.10;89.40;;;;;;5137451;27;20500;-77
2023/02/01 04:02:08;;;;;;;2.50;0.93;;;5.10;89.40;;;;;;5155436;27;20038;-77
2023/02/01 04:04:34;;;;;;;3.35;1.05;;;5.10;89.50;;;;;;5155159;27;20035;-78
2023/02/01 04:07:00;;;;;;;4.30;0.75;;;5.00;89.40;;;;;;5119520;27;20080;-77
2023/02/01 04:09:26;;;;;;;1.27;0.77;;;5.00;89.50;;;;;;5155079;27;20426;-78
2023/02/01 04:11:52;;;;;;;5.35;1.10;;;4.90;89.60;;;;;;5136418;27;20061;-77
2023/02/01 04:14:17;;;;;;;3.10;1.17;;;4.90;89.80;;;;;;5137020;27;20478;-78
2023/02/01 04:16:43;;;;;;;4.55;1.10;;;4.90;90.00;;;;;;5136215;27;20043;-77
2023/02/01 04:19:08;;;;;;;6.70;1.10;;;4.90;90.00;;;;;;5134387;27;20490;-77
2023/02/01 04:21:34;;;;;;;2.65;1.10;;;4.90;89.90;;;;;;5136228;27;20137;-77
2023/02/01 04:24:00;;;;;;;4.85;1.33;;;4.90;90.00;;;;;;5136189;27;20052;-77
2023/02/01 04:26:25;;;;;;;3.05;1.00;;;4.90;90.00;;;;;;5119006;27;20049;-77
2023/02/01 04:28:52;;;;;;;2.40;0.80;;;4.90;90.00;;;;;;5136099;27;20034;-78
2023/02/01 04:31:27;;;;;;;2.95;0.98;;;4.90;90.00;;;;;;5135934;27;20046;-77
2023/02/01 04:33:54;;;;;;;3.33;1.05;;;4.90;90.00;;;;;;5120099;27;20043;-77
2023/02/01 04:36:21;;;;;;;2.65;0.93;;;5.00;90.00;;;;;;5101785;27;20090;-77
2023/02/01 04:38:48;;;;;;;2.33;0.75;;;5.00;89.90;;;;;;5154741;27;20034;-79
2023/02/01 04:41:14;;;;;;;4.15;0.95;;;5.00;89.90;;;;;;5117222;27;20035;-78
2023/02/01 04:43:39;;;;;;;4.70;0.98;;;5.10;89.80;;;;;;5135866;27;20050;-78
2023/02/01 04:46:05;;;;;;;6.43;1.30;;;5.20;89.70;;;;;;5118206;27;20066;-77
2023/02/01 04:48:30;;;;;;;2.92;1.10;;;5.30;89.60;;;;;;5118894;27;20038;-77
2023/02/01 04:50:56;;;;;;;3.85;1.30;;;5.30;89.30;;;;;;5135931;27;20378;-78
2023/02/01 04:53:22;;;;;;;4.30;1.23;;;5.50;89.20;;;;;;5119043;27;20053;-77
2023/02/01 04:55:49;;;;;;;3.00;1.13;;;5.60;89.10;;;;;;5135806;27;20107;-78
2023/02/01 04:58:15;;;;;;;6.05;1.38;;;5.60;88.90;;;;;;5135782;27;20067;-77
2023/02/01 05:00:41;;;;;;;6.55;1.52;;;5.70;88.70;;;;;;5135749;27;20034;-78
2023/02/01 05:03:07;;;;;;;4.88;1.30;;;5.80;88.70;;;;;;5101791;27;20504;-78
2023/02/01 05:05:32;;;;;;;4.53;1.35;;;5.80;88.50;;;;;;5100402;27;20482;-77
2023/02/01 05:07:58;;;;;;;4.07;1.15;;;5.90;88.40;;;;;;5135919;27;20045;-78
2023/02/01 05:10:24;;;;;;;4.90;1.20;;;5.90;88.30;;;;;;5154292;27;20129;-78
2023/02/01 05:15:32;;;;;;;5.60;1.50;;;5.90;88.30;;;;;;5154145;27;20099;-78
2023/02/01 05:17:57;;;;;;;6.78;2.05;;;6.00;88.30;;;;;;5135670;27;20397;-78
2023/02/01 05:20:24;;;;;;;4.20;1.38;;;6.00;88.20;;;;;;5154133;27;20040;-78
2023/02/01 05:22:49;;;;;;;5.28;1.30;;;6.00;88.10;;;;;;5118440;27;20045;-77
2023/02/01 05:25:15;;;;;;;5.07;1.38;;;6.10;88.20;;;;;;5118492;27;20126;-78
2023/02/01 05:27:41;;;;;;;5.28;1.52;;;6.10;88.10;;;;;;5118461;27;20446;-77
2023/02/01 05:30:08;;;;;;;8.95;1.60;;;6.10;88.20;;;;;;5134292;27;20054;-78
2023/02/01 05:32:34;;;;;;;5.93;1.33;;;6.10;88.10;;;;;;5115373;27;20067;-78
2023/02/01 05:34:59;;;;;;;5.28;1.33;;;6.20;88.00;;;;;;5118629;27;20506;-78
2023/02/01 05:37:25;;;;;;;4.78;1.25;;;6.20;88.00;;;;;;5135997;27;20039;-77
2023/02/01 05:39:51;;;;;;;3.65;1.00;;;6.20;88.00;;;;;;5134178;27;20394;-78
2023/02/01 05:42:16;;;;;;;6.80;1.55;;;6.20;88.00;;;;;;5135941;27;20440;-78
2023/02/01 05:44:42;;;;;;;6.88;1.85;;;6.20;88.10;;;;;;5117611;27;20043;-78
2023/02/01 05:47:08;;;;;;;6.13;1.30;;;6.30;88.00;;;;;;5101099;27;20054;-78
2023/02/01 05:49:34;;;;;;;6.70;1.83;;;6.30;88.00;;;;;;5135588;27;20129;-78
2023/02/01 05:51:59;;;;;;;7.45;1.63;;;6.30;88.00;;;;;;5135231;27;20516;-78
2023/02/01 05:54:25;;;;;;;5.55;1.55;;;6.30;87.80;;;;;;5135285;27;20066;-76
2023/02/01 05:56:50;;;;;;;6.47;1.75;;;6.30;87.70;;;;;;5154167;27;20119;-76
2023/02/01 05:59:16;;;;;;;4.72;1.20;;;6.40;87.70;;;;;;5138972;27;20102;-77
2023/02/01 06:01:42;;;;;;;10.88;1.63;;;6.40;87.70;;;;;;5157398;27;20134;-78
2023/02/01 06:04:08;;;;;;;6.68;1.60;;;6.40;87.70;;;;;;5120165;27;20515;-77
2023/02/01 06:06:34;;;;;;;3.33;1.20;;;6.40;87.60;;;;;;5139237;27;20039;-77
2023/02/01 06:09:00;;;;;;;4.90;1.58;;;6.40;87.60;;;;;;5137916;27;20061;-77
2023/02/01 06:11:26;;;;;;;5.63;1.50;;;6.40;87.60;;;;;;5138930;27;20507;-77
2023/02/01 06:13:52;;;;;;;6.38;1.80;;;6.40;87.50;;;;;;5119572;27;20051;-77
2023/02/01 06:16:17;;;;;;;5.60;1.80;;;6.40;87.40;;;;;;5138374;27;20406;-77
2023/02/01 06:18:43;;;;;;;5.65;1.60;;;6.50;87.50;;;;;;5138971;27;20134;-76
2023/02/01 06:21:09;;;;;;;5.20;1.50;;;6.50;87.50;;;;;;5157024;27;20146;-77
2023/02/01 06:23:34;;;;;;;5.35;1.50;;;6.50;87.50;;;;;;5138742;27;20035;-78
2023/02/01 06:26:07;;;;;;;6.82;1.60;;;6.40;87.40;;;;;;5138120;27;20063;-77
2023/02/01 06:28:33;;;;;;;5.78;1.63;;;6.40;87.40;;;;;;5137802;27;20038;-78
2023/02/01 06:31:06;;;;;;;5.10;1.40;;;6.40;87.50;;;;;;5156742;27;20039;-78
2023/02/01 06:33:32;;;;;;;6.72;1.60;;;6.40;87.60;;;;;;5138702;27;20039;-77
2023/02/01 06:35:59;;;;;;;8.32;1.80;;;6.40;87.50;;;;;;5138933;27;20042;-79
2023/02/01 06:38:26;;;;;;;7.05;1.60;;;6.40;87.50;;;;;;5156767;27;20031;-78
2023/02/01 06:40:54;;;;;;;6.53;1.63;;;6.50;87.50;;;;;;5138433;27;20164;-77
2023/02/01 06:43:20;;;;;;;5.78;1.67;;;6.40;87.40;;;;;;5121064;27;20557;-77
2023/02/01 06:45:46;;;;;;;5.57;1.63;;;6.50;87.40;;;;;;5120156;27;20436;-76
2023/02/01 06:48:11;;;;;;;5.68;1.52;;;6.40;87.40;;;;;;5119525;27;20043;-77
2023/02/01 06:50:37;;;;;;;6.05;1.55;;;6.40;87.40;;;;;;5138010;27;20058;-77
2023/02/01 06:53:03;;;;;;;8.07;2.03;;;6.50;87.40;;;;;;5120922;27;20431;-78
2023/02/01 06:55:28;;;;;;;3.40;1.23;;;6.50;87.30;;;;;;5120723;27;20039;-78
2023/02/01 06:57:55;;;;;;;6.35;1.70;;;6.50;87.20;;;;;;5119135;27;20047;-77
2023/02/01 07:00:22;;;;;;;7.85;1.80;;;6.50;87.20;;;;;;5120721;27;20053;-78
2023/02/01 07:02:47;;;;;;;5.75;1.80;;;6.50;87.20;;;;;;5137723;27;20550;-77
2023/02/01 07:05:13;;;;;;;6.20;1.75;;;6.50;87.20;;;;;;5103437;27;20034;-79
2023/02/01 07:07:38;;;;;;;6.45;1.80;;;6.50;87.20;;;;;;5137345;27;20564;-78
2023/02/01 07:10:04;;;;;;;7.32;1.88;;;6.50;87.10;;;;;;5103136;27;20045;-77
2023/02/01 07:12:30;;;;;;;6.07;1.75;;;6.50;87.20;;;;;;5137705;27;20443;-75
2023/02/01 07:14:56;;;;;;;4.22;1.52;;;6.50;87.20;;;;;;5120429;27;20113;-75
2023/02/01 07:17:22;;;;;;;6.20;1.77;;;6.50;87.20;;;;;;5156052;27;20047;-76
2023/02/01 07:19:48;;;;;;;7.35;1.60;;;6.50;87.20;;;;;;5137700;27;20038;-75
2023/02/01 07:22:16;;;;;;;7.47;2.05;;;6.50;87.20;;;;;;5137547;27;20094;-74
2023/02/01 07:24:42;;;;;;;5.03;1.60;;;6.50;87.30;;;;;;5138061;27;20094;-74
2023/02/01 07:27:08;;;;;;;5.68;1.92;;;6.40;87.20;;;;;;5137508;27;20043;-74
2023/02/01 07:29:33;;;;;;;6.60;1.80;;;6.40;87.20;;;;;;5136471;27;20501;-77
2023/02/01 07:32:00;;;;;;;6.30;1.98;;;6.40;87.30;;;;;;5156253;27;20035;-74
2023/02/01 07:34:26;;;;;;;8.70;2.20;;;6.40;87.40;;;;;;5136998;27;20055;-74
2023/02/01 07:36:51;;;;;;;8.18;2.10;;;6.40;88.00;;;;;;5136276;27;20098;-74
2023/02/01 07:39:17;;;;;;;6.05;1.90;;;6.30;87.30;;;;;;5156032;27;20091;-74
2023/02/01 07:41:42;;;;;;;3.95;1.60;;;6.30;87.40;;;;;;5119947;27;20034;-76
2023/02/01 07:44:08;;;;;;;4.07;1.50;;;6.30;87.40;;;;;;5155877;27;20036;-75
2023/02/01 07:46:34;;;;;;;6.68;1.67;;;6.30;87.50;;;;;;5137112;27;20405;-76
2023/02/01 07:49:02;;;;;;;5.35;1.40;;;6.20;87.50;;;;;;5135331;27;20545;-77
2023/02/01 07:51:30;;;;;;;8.48;2.05;;;6.30;87.60;;;;;;5092100;28;20044;-77
2023/02/01 07:53:56;;;;;;;4.88;1.40;;;6.30;87.50;;;;;;5057908;28;20131;-77
2023/02/01 08:03:06;;;;;;;4.85;1.58;;;6.30;87.50;;;;;;5011698;28;20093;-75
2023/02/01 08:05:32;;;;;;;4.80;1.52;;;6.20;87.50;;;;;;4995149;28;20124;-76
2023/02/01 08:08:00;;;;;;;6.85;1.80;;;6.20;87.50;;;;;;5009549;28;20125;-76
2023/02/01 08:10:26;;;;;;;8.18;1.95;;;6.20;87.60;;;;;;5012241;28;20120;-77
2023/02/01 08:12:59;;;;;;;4.90;1.48;;;6.30;88.30;;;;;;5009600;28;20081;-77
2023/02/01 08:15:28;;;;;;;5.47;1.70;;;6.20;87.60;;;;;;5011408;28;20069;-77
2023/02/01 08:21:09;;;;;;;5.55;1.77;;;6.20;87.80;;;;;;5006727;28;20445;-77
2023/02/01 08:23:56;;;;;;;2.15;1.10;;;6.20;87.40;;;;;;4985239;28;20091;-77
2023/02/01 08:26:36;;;;;;;5.00;1.60;;;6.30;87.50;;;;;;4970109;28;20129;-75
2023/02/01 08:29:23;;;;;;;3.90;1.05;;;6.20;87.40;;;;;;4971022;28;20050;-76
2023/02/01 08:31:56;;;;;;;4.68;1.42;;;6.20;87.50;;;;;;5010399;28;20457;-76
2023/02/01 08:34:34;;;;;;;7.30;1.80;;;6.20;87.50;;;;;;4972302;28;20111;-76
2023/02/01 08:37:03;;;;;;;4.03;1.52;;;6.30;87.60;;;;;;4932058;29;20187;-76
2023/02/01 08:39:46;;;;;;;5.65;1.50;;;6.30;87.50;;;;;;4933144;29;20082;-76
2023/02/01 08:45:09;;;;;;;5.72;1.58;;;6.40;87.50;;;;;;4914320;29;20055;-77
2023/02/01 08:47:37;;;;;;;2.92;1.10;;;6.30;87.40;;;;;;4899762;29;20074;-77
2023/02/01 08:50:08;;;;;;;3.78;1.15;;;6.40;87.50;;;;;;4899132;29;20135;-77
2023/02/01 08:52:35;;;;;;;4.40;1.10;;;6.30;87.40;;;;;;4899412;29;20052;-78
2023/02/01 08:55:03;;;;;;;3.38;1.20;;;6.50;87.50;;;;;;4927599;29;20508;-77
2023/02/01 08:57:59;;;;;;;4.97;1.27;;;6.50;87.40;;;;;;4935081;29;20047;-79
2023/02/01 09:00:36;;;;;;;6.25;1.38;;;6.60;87.90;;;;;;4875019;29;20400;-79
2023/02/01 09:03:05;;;;;;;4.85;1.80;;;6.70;87.00;;;;;;4909382;29;20192;-79
2023/02/01 09:05:31;;;;;;;4.45;1.50;;;6.90;86.80;;;;;;4921027;29;20050;-78
2023/02/01 09:07:56;;;;;;;5.53;1.60;;;6.80;86.50;;;;;;4953180;29;20039;-77
2023/02/01 09:10:22;;;;;;;5.72;1.55;;;6.90;86.50;;;;;;4961814;28;20062;-76
2023/02/01 09:12:48;;;;;;;4.60;1.60;;;6.90;86.40;;;;;;5008823;28;20053;-76
2023/02/01 09:16:06;;;;;;;4.35;1.40;;;7.00;86.50;;;;;;5004709;28;20126;-78
2023/02/01 09:26:27;;;;;;;6.60;1.70;;;7.00;86.30;;;;;;4876678;29;20059;-80
2023/02/01 09:29:03;;;;;;;7.07;1.88;;;6.90;86.40;;;;;;4876912;29;20072;-80
2023/02/01 09:31:40;;;;;;;5.53;2.00;;;7.00;86.40;;;;;;4877746;29;20064;-79
2023/02/01 09:34:50;;;;;;;8.40;2.03;;;7.10;86.30;;;;;;4856980;29;20481;-80
2023/02/01 09:37:28;;;;;;;5.90;2.13;;;7.10;86.20;;;;;;4873682;29;20053;-78
2023/02/01 09:39:58;;;;;;;5.88;1.98;;;7.30;86.30;;;;;;4875112;29;20040;-78
2023/02/01 09:42:50;;;;;;;12.18;2.60;;;7.30;86.90;;;;;;4897609;29;20036;-79
2023/02/01 09:45:32;;;;;;;6.32;1.75;;;7.20;86.00;;;;;;4905449;29;20041;-78
2023/02/01 09:48:08;;;;;;;6.00;1.90;;;7.40;86.00;;;;;;4883991;29;20044;-75
2023/02/01 09:50:41;;;;;;;7.40;2.50;;;7.60;85.80;;;;;;4930848;29;20448;-79
2023/02/01 09:53:19;;;;;;;5.40;1.73;;;7.60;85.60;;;;;;4916887;29;20484;-79
2023/02/01 09:55:51;;;;;;;5.95;1.70;;;7.70;85.50;;;;;;4919949;29;20048;-79
2023/02/01 09:58:36;;;;;;;7.20;1.77;;;7.70;85.40;;;;;;4936098;28;20075;-78
2023/02/01 10:01:05;;;;;;;8.63;1.90;;;7.70;85.20;;;;;;4958026;28;20129;-78
2023/02/01 10:03:34;;;;;;;7.07;1.95;;;7.80;85.30;;;;;;4955540;28;20047;-77
2023/02/01 10:06:38;;;;;;;7.32;2.20;;;7.80;85.30;;;;;;4971013;28;20042;-79
2023/02/01 10:09:30;;;;;;;8.05;2.10;;;7.80;85.20;;;;;;4970777;28;20043;-77
2023/02/01 10:12:19;;;;;;;6.78;1.63;;;7.70;85.20;;;;;;4991615;28;20042;-77
2023/02/01 10:15:05;;;;;;;7.97;2.03;;;7.70;85.30;;;;;;5028153;28;20052;-79
2023/02/01 10:18:09;;;;;;;7.15;1.95;;;7.70;85.20;;;;;;5044697;28;20041;-77
2023/02/01 10:20:59;;;;;;;6.00;1.75;;;7.70;85.40;;;;;;5090100;28;20066;-77
2023/02/01 10:23:46;;;;;;;7.32;1.80;;;7.70;85.40;;;;;;5105950;27;20070;-80
2023/02/01 10:26:22;;;;;;;8.25;2.28;;;7.60;85.50;;;;;;5134224;27;20042;-77
2023/02/01 10:28:53;;;;;;;6.88;2.10;;;7.70;85.50;;;;;;5134694;27;20047;-76
2023/02/01 10:31:20;;;;;;;8.90;1.98;;;7.70;85.50;;;;;;5100983;27;20137;-77
2023/02/01 10:33:51;;;;;;;9.38;2.45;;;7.60;85.50;;;;;;5134536;27;20498;-76
2023/02/01 10:36:30;;;;;;;4.22;1.60;;;7.60;85.50;;;;;;5134379;27;20515;-76
2023/02/01 10:39:00;;;;;;;7.75;2.10;;;7.70;85.70;;;;;;5117444;27;20035;-77
2023/02/01 10:41:35;;;;;;;9.35;2.28;;;7.50;85.80;;;;;;5153595;27;20504;-76
2023/02/01 10:44:12;;;;;;;10.35;2.40;;;7.50;85.90;;;;;;5136392;27;20034;-77
2023/02/01 10:46:44;;;;;;;8.15;2.10;;;7.50;86.00;;;;;;5137892;27;20038;-77
2023/02/01 10:49:25;;;;;;;7.32;2.05;;;7.40;86.10;;;;;;5059974;28;20044;-78
2023/02/01 10:52:03;;;;;;;7.15;2.00;;;7.30;86.20;;;;;;5076836;28;20074;-78
2023/02/01 10:54:41;;;;;;;7.80;1.85;;;7.30;86.30;;;;;;5072535;28;20041;-77
2023/02/01 10:57:33;;;;;;;8.38;2.17;;;7.20;86.50;;;;;;5056945;28;20437;-78
2023/02/01 11:00:18;;;;;;;4.95;1.90;;;7.20;86.70;;;;;;5032012;28;20033;-76
2023/02/01 11:02:44;;;;;;;6.10;1.85;;;7.10;86.90;;;;;;5016231;28;20041;-75
2023/02/01 11:05:11;;;;;;;8.35;1.90;;;7.10;87.00;;;;;;5032421;28;20060;-77
2023/02/01 11:07:39;;;;;;;7.20;1.75;;;7.10;87.20;;;;;;5016487;28;20072;-77
2023/02/01 11:10:05;;;;;;;11.57;2.40;;;7.00;87.30;;;;;;5015661;28;20405;-77
2023/02/01 11:12:34;;;;;;;8.48;2.38;;;7.10;87.50;;;;;;5032293;28;20041;-77
2023/02/01 11:15:17;;;;;;;5.68;1.85;;;7.10;87.50;;;;;;5032156;28;20116;-77
2023/02/01 11:17:45;;;;;;;10.27;2.17;;;7.10;88.00;;;;;;5015582;28;20053;-77
2023/02/01 11:20:20;;;;;;;6.70;1.90;;;7.10;87.40;;;;;;5021153;28;20044;-77
2023/02/01 11:22:52;;;;;;;4.65;1.85;;;7.10;87.40;;;;;;5055641;28;20091;-77
2023/02/01 11:25:18;;;;;;;5.70;2.00;;;7.10;87.40;;;;;;5099165;28;20501;-77
2023/02/01 11:27:45;;;;;;;8.98;1.95;;;7.10;87.40;;;;;;5112510;28;20639;-77
2023/02/01 11:30:17;;;;;;;7.32;1.60;;;7.10;87.40;;;;;;5119879;27;20125;-77
2023/02/01 11:32:46;;;;;;;6.55;1.60;;;7.10;87.40;;;;;;5155806;27;20121;-77
2023/02/01 11:35:21;;;;;;;6.47;1.88;;;7.10;87.40;;;;;;5120339;27;20077;-77
2023/02/01 11:37:58;;;;;;;8.90;1.77;;;7.10;87.50;;;;;;5138703;27;20039;-79
2023/02/01 11:40:33;;;;;;;9.30;2.63;;;7.20;87.50;;;;;;5120585;27;20121;-77
2023/02/01 11:43:07;;;;;;;9.55;2.22;;;7.10;87.30;;;;;;5137369;27;20465;-77
2023/02/01 11:45:34;;;;;;;7.88;2.55;;;7.10;87.20;;;;;;5155640;27;20043;-77
2023/02/01 11:48:00;;;;;;;8.52;2.00;;;7.20;87.20;;;;;;5137189;27;20039;-77
2023/02/01 11:50:35;;;;;;;11.82;2.67;;;7.10;87.20;;;;;;5155373;27;20043;-76
2023/02/01 11:53:20;;;;;;;7.25;2.08;;;7.20;87.40;;;;;;5155434;27;20043;-77
2023/02/01 11:56:09;;;;;;;9.52;2.13;;;7.10;87.40;;;;;;5121846;27;20056;-76
2023/02/01 11:58:58;;;;;;;7.97;2.10;;;7.20;87.60;;;;;;5155446;27;20046;-75
2023/02/01 12:01:41;;;;;;;8.02;2.10;;;7.20;87.60;;;;;;5135605;27;20034;-77
2023/02/01 12:04:31;;;;;;;10.85;2.65;;;7.20;87.70;;;;;;5136792;27;20038;-77
2023/02/01 12:11:07;;;;;;;9.13;2.33;;;7.20;87.50;;;;;;5091034;28;20125;-78
2023/02/01 12:17:33;;;;;;;6.90;1.70;;;7.30;87.50;;;;;;4973631;28;20054;-78
2023/02/01 12:20:24;;;;;;;7.82;1.92;;;7.50;87.40;;;;;;4974429;28;20038;-77
2023/02/01 12:23:21;;;;;;;9.40;2.23;;;7.40;87.30;;;;;;4972887;28;20047;-79
2023/02/01 12:26:21;;;;;;;5.78;1.70;;;7.50;87.30;;;;;;4971002;28;20277;-79
2023/02/01 12:29:11;;;;;;;5.15;1.50;;;7.50;87.20;;;;;;4970687;28;20051;-78
2023/02/01 12:32:01;;;;;;;6.35;1.60;;;7.60;87.20;;;;;;4973447;28;20047;-78
2023/02/01 12:35:14;;;;;;;5.60;1.90;;;7.60;86.90;;;;;;4974710;28;20133;-79
2023/02/01 12:38:08;;;;;;;7.75;2.28;;;7.80;87.00;;;;;;4943626;28;20118;-78
2023/02/01 12:41:12;;;;;;;6.45;1.90;;;7.90;86.80;;;;;;4971392;28;20041;-79
2023/02/01 12:44:13;;;;;;;6.60;2.28;;;7.80;86.70;;;;;;5030537;28;20049;-79
2023/02/01 12:47:09;;;;;;;7.90;1.97;;;7.90;86.60;;;;;;5017127;28;20037;-79
2023/02/01 12:50:12;;;;;;;8.55;2.00;;;7.90;86.40;;;;;;4990801;28;20044;-78
2023/02/01 12:52:49;;;;;;;7.65;2.38;;;7.90;86.20;;;;;;4991623;28;20486;-78
2023/02/01 12:55:32;;;;;;;7.63;1.92;;;7.90;86.20;;;;;;5030485;28;20048;-77
2023/02/01 12:58:16;;;;;;;7.80;1.85;;;8.00;86.30;;;;;;5030318;28;20053;-77
2023/02/01 13:00:57;;;;;;;9.07;2.40;;;8.00;86.30;;;;;;5010894;28;20041;-77
2023/02/01 13:03:36;;;;;;;9.23;2.28;;;8.00;86.30;;;;;;5011172;28;20072;-77
2023/02/01 13:06:10;;;;;;;9.25;2.38;;;8.10;86.30;;;;;;4993738;28;20481;-77
2023/02/01 13:08:57;;;;;;;10.20;2.28;;;8.00;86.00;;;;;;5010618;28;20397;-77
2023/02/01 13:11:34;;;;;;;8.75;2.10;;;8.10;85.90;;;;;;5028988;28;20045;-78
2023/02/01 13:14:33;;;;;;;7.22;2.03;;;8.00;85.70;;;;;;5073875;28;20055;-78
2023/02/01 13:17:29;;;;;;;6.07;2.03;;;8.00;85.80;;;;;;5073274;28;20036;-78
2023/02/01 13:20:24;;;;;;;6.50;1.70;;;8.00;85.80;;;;;;5036435;28;20041;-79
2023/02/01 13:23:14;;;;;;;9.90;2.05;;;8.00;85.90;;;;;;5029777;28;20041;-79
2023/02/01 13:25:49;;;;;;;6.07;1.83;;;7.90;85.80;;;;;;5032255;28;20158;-78
2023/02/01 13:28:31;;;;;;;7.25;1.90;;;8.00;85.90;;;;;;5049704;28;20060;-79
2023/02/01 13:31:23;;;;;;;7.93;1.75;;;8.10;85.80;;;;;;5052899;28;20044;-78
2023/02/01 13:34:14;;;;;;;6.15;2.10;;;8.10;85.70;;;;;;5056583;28;20047;-78
2023/02/01 13:37:07;;;;;;;7.85;2.03;;;8.10;85.70;;;;;;5070382;28;20507;-78
2023/02/01 13:40:19;;;;;;;6.88;1.60;;;8.10;85.60;;;;;;5080921;28;20080;-78
2023/02/01 13:42:52;;;;;;;6.47;1.85;;;8.10;85.60;;;;;;5065223;28;20052;-77
2023/02/01 13:45:21;;;;;;;7.20;2.28;;;8.10;85.50;;;;;;5073532;28;20055;-77
2023/02/01 13:47:52;;;;;;;8.65;2.25;;;8.10;85.50;;;;;;5056898;28;20135;-77
2023/02/01 13:50:24;;;;;;;7.03;2.40;;;8.10;85.40;;;;;;5073335;28;20036;-78
2023/02/01 13:53:08;;;;;;;8.23;1.90;;;8.10;85.30;;;;;;5072969;28;20043;-79
2023/02/01 13:55:39;;;;;;;8.15;2.17;;;8.20;85.40;;;;;;5058890;28;20483;-78
2023/02/01 13:58:28;;;;;;;8.75;2.13;;;8.20;85.40;;;;;;5130301;27;20030;-78
2023/02/01 14:01:34;;;;;;;5.72;1.65;;;8.10;85.30;;;;;;5136967;27;20038;-77
2023/02/01 14:08:15;;;;;;;7.60;1.83;;;8.10;85.20;;;;;;5073391;28;20052;-79
2023/02/01 14:21:38;;;;;;;7.00;1.77;;;8.10;84.80;;;;;;4937380;29;20048;-80
2023/02/01 14:27:38;;;;;;;5.38;1.40;;;8.20;84.80;;;;;;4898630;29;20049;-77
2023/02/01 14:30:33;;;;;;;9.02;2.13;;;8.20;84.70;;;;;;4875986;29;20040;-78
2023/02/01 14:33:18;;;;;;;6.18;1.77;;;8.20;84.70;;;;;;4863701;29;20053;-77
2023/02/01 14:36:02;;;;;;;7.43;1.98;;;8.30;84.60;;;;;;4847753;29;20048;-77
2023/02/01 14:38:31;;;;;;;6.90;1.75;;;8.30;84.50;;;;;;4882803;29;20064;-76
2023/02/01 14:41:32;;;;;;;6.38;1.83;;;8.30;84.50;;;;;;4897622;29;20053;-78